sensor_id;sensor_type;location;lat;lon;timestamp;P1;durP1;ratioP1;P2;durP2;ratioP2
35496;SDS011;21609;49.298;6.844;2023-06-04T00:01:21;2.28;;;2.17;;
35496;SDS011;21609;49.298;6.844;2023-06-04T00:03:47;2.05;;;1.88;;
35496;SDS011;21609;49.298;6.844;2023-06-04T00:06:12;2.92;;;2.72;;
35496;SDS011;21609;49.298;6.844;2023-06-04T00:08:38;2.45;;;2.28;;
35496;SDS011;21609;49.298;6.844;2023-06-04T00:11:04;3.40;;;2.58;;
35496;SDS011;21609;49.298;6.844;2023-06-04T00:13:29;2.60;;;2.40;;
35496;SDS011;21609;49.298;6.844;2023-06-04T00:15:55;3.47;;;2.20;;
35496;SDS011;21609;49.298;6.844;2023-06-04T00:18:21;3.08;;;2.67;;
35496;SDS011;21609;49.298;6.844;2023-06-04T00:20:46;2.28;;;2.17;;
35496;SDS011;21609;49.298;6.844;2023-06-04T00:23:12;2.80;;;2.60;;
35496;SDS011;21609;49.298;6.844;2023-06-04T00:25:37;2.20;;;2.10;;
35496;SDS011;21609;49.298;6.844;2023-06-04T00:28:03;2.10;;;2.00;;
35496;SDS011;21609;49.298;6.844;2023-06-04T00:30:28;3.65;;;2.15;;
35496;SDS011;21609;49.298;6.844;2023-06-04T00:32:54;3.33;;;2.50;;
35496;SDS011;21609;49.298;6.844;2023-06-04T00:35:20;2.53;;;2.38;;
35496;SDS011;21609;49.298;6.844;2023-06-04T00:37:45;2.75;;;2.53;;
35496;SDS011;21609;49.298;6.844;2023-06-04T00:40:11;2.50;;;2.30;;
35496;SDS011;21609;49.298;6.844;2023-06-04T00:42:37;2.20;;;2.10;;
35496;SDS011;21609;49.298;6.844;2023-06-04T00:45:03;2.60;;;2.40;;
35496;SDS011;21609;49.298;6.844;2023-06-04T00:47:30;2.70;;;2.50;;
35496;SDS011;21609;49.298;6.844;2023-06-04T00:49:56;3.30;;;2.33;;
35496;SDS011;21609;49.298;6.844;2023-06-04T00:52:23;2.17;;;2.08;;
35496;SDS011;21609;49.298;6.844;2023-06-04T00:54:51;2.40;;;2.20;;
35496;SDS011;21609;49.298;6.844;2023-06-04T00:57:19;2.22;;;2.03;;
35496;SDS011;21609;49.298;6.844;2023-06-04T00:59:48;2.67;;;2.47;;
35496;SDS011;21609;49.298;6.844;2023-06-04T01:02:15;2.72;;;2.53;;
35496;SDS011;21609;49.298;6.844;2023-06-04T01:07:36;2.13;;;2.03;;
35496;SDS011;21609;49.298;6.844;2023-06-04T01:10:05;2.60;;;2.35;;
35496;SDS011;21609;49.298;6.844;2023-06-04T01:12:31;2.45;;;2.28;;
35496;SDS011;21609;49.298;6.844;2023-06-04T01:14:57;2.35;;;2.25;;
35496;SDS011;21609;49.298;6.844;2023-06-04T01:22:32;2.10;;;2.00;;
35496;SDS011;21609;49.298;6.844;2023-06-04T01:25:24;2.22;;;2.03;;
35496;SDS011;21609;49.298;6.844;2023-06-04T01:27:57;2.20;;;2.10;;
35496;SDS011;21609;49.298;6.844;2023-06-04T01:30:24;2.08;;;1.98;;
35496;SDS011;21609;49.298;6.844;2023-06-04T01:32:51;2.20;;;2.10;;
35496;SDS011;21609;49.298;6.844;2023-06-04T01:35:18;1.98;;;1.88;;
35496;SDS011;21609;49.298;6.844;2023-06-04T01:37:45;2.05;;;1.85;;
35496;SDS011;21609;49.298;6.844;2023-06-04T01:40:11;2.40;;;2.20;;
35496;SDS011;21609;49.298;6.844;2023-06-04T01:42:37;2.30;;;2.10;;
35496;SDS011;21609;49.298;6.844;2023-06-04T01:45:02;2.22;;;2.05;;
35496;SDS011;21609;49.298;6.844;2023-06-04T01:47:29;2.00;;;1.90;;
35496;SDS011;21609;49.298;6.844;2023-06-04T01:49:54;2.05;;;1.95;;
35496;SDS011;21609;49.298;6.844;2023-06-04T01:52:20;1.90;;;1.80;;
35496;SDS011;21609;49.298;6.844;2023-06-04T01:54:46;2.28;;;2.08;;
35496;SDS011;21609;49.298;6.844;2023-06-04T01:57:17;2.50;;;2.30;;
35496;SDS011;21609;49.298;6.844;2023-06-04T01:59:46;2.05;;;1.95;;
35496;SDS011;21609;49.298;6.844;2023-06-04T02:02:12;4.40;;;2.25;;
35496;SDS011;21609;49.298;6.844;2023-06-04T02:04:38;2.10;;;2.00;;
35496;SDS011;21609;49.298;6.844;2023-06-04T02:07:06;2.25;;;2.15;;
35496;SDS011;21609;49.298;6.844;2023-06-04T02:09:35;1.95;;;1.85;;
35496;SDS011;21609;49.298;6.844;2023-06-04T02:12:01;2.15;;;2.03;;
35496;SDS011;21609;49.298;6.844;2023-06-04T02:14:28;2.03;;;1.92;;
35496;SDS011;21609;49.298;6.844;2023-06-04T02:16:53;2.20;;;2.10;;
35496;SDS011;21609;49.298;6.844;2023-06-04T02:19:23;2.13;;;1.90;;
35496;SDS011;21609;49.298;6.844;2023-06-04T02:21:50;2.25;;;2.15;;
35496;SDS011;21609;49.298;6.844;2023-06-04T02:24:16;2.30;;;2.20;;
35496;SDS011;21609;49.298;6.844;2023-06-04T02:26:42;1.98;;;1.88;;
35496;SDS011;21609;49.298;6.844;2023-06-04T02:29:08;1.85;;;1.75;;
35496;SDS011;21609;49.298;6.844;2023-06-04T02:31:33;2.35;;;2.15;;
35496;SDS011;21609;49.298;6.844;2023-06-04T02:33:59;1.92;;;1.83;;
35496;SDS011;21609;49.298;6.844;2023-06-04T02:36:24;1.90;;;1.80;;
35496;SDS011;21609;49.298;6.844;2023-06-04T02:38:50;2.00;;;1.90;;
35496;SDS011;21609;49.298;6.844;2023-06-04T02:41:16;2.00;;;1.90;;
35496;SDS011;21609;49.298;6.844;2023-06-04T02:43:41;2.00;;;1.90;;
35496;SDS011;21609;49.298;6.844;2023-06-04T02:46:07;1.67;;;1.58;;
35496;SDS011;21609;49.298;6.844;2023-06-04T02:48:32;1.95;;;1.75;;
35496;SDS011;21609;49.298;6.844;2023-06-04T02:50:58;2.30;;;2.20;;
35496;SDS011;21609;49.298;6.844;2023-06-04T02:53:23;1.90;;;1.80;;
35496;SDS011;21609;49.298;6.844;2023-06-04T02:55:49;1.92;;;1.83;;
35496;SDS011;21609;49.298;6.844;2023-06-04T02:58:18;2.17;;;1.98;;
35496;SDS011;21609;49.298;6.844;2023-06-04T03:00:44;2.15;;;1.95;;
35496;SDS011;21609;49.298;6.844;2023-06-04T03:03:10;1.88;;;1.77;;
35496;SDS011;21609;49.298;6.844;2023-06-04T03:05:35;2.85;;;2.00;;
35496;SDS011;21609;49.298;6.844;2023-06-04T03:08:01;3.35;;;1.65;;
35496;SDS011;21609;49.298;6.844;2023-06-04T03:10:28;1.83;;;1.73;;
35496;SDS011;21609;49.298;6.844;2023-06-04T03:12:54;1.60;;;1.50;;
35496;SDS011;21609;49.298;6.844;2023-06-04T03:15:20;2.22;;;2.10;;
35496;SDS011;21609;49.298;6.844;2023-06-04T03:17:46;1.75;;;1.65;;
35496;SDS011;21609;49.298;6.844;2023-06-04T03:20:11;1.98;;;1.80;;
35496;SDS011;21609;49.298;6.844;2023-06-04T03:22:37;2.15;;;2.00;;
35496;SDS011;21609;49.298;6.844;2023-06-04T03:25:03;1.88;;;1.77;;
35496;SDS011;21609;49.298;6.844;2023-06-04T03:27:30;1.75;;;1.65;;
35496;SDS011;21609;49.298;6.844;2023-06-04T03:29:57;2.42;;;1.90;;
35496;SDS011;21609;49.298;6.844;2023-06-04T03:32:22;1.90;;;1.80;;
35496;SDS011;21609;49.298;6.844;2023-06-04T03:34:48;1.58;;;1.48;;
35496;SDS011;21609;49.298;6.844;2023-06-04T03:37:13;2.00;;;1.88;;
35496;SDS011;21609;49.298;6.844;2023-06-04T03:39:39;1.80;;;1.70;;
35496;SDS011;21609;49.298;6.844;2023-06-04T03:42:04;2.05;;;1.85;;
35496;SDS011;21609;49.298;6.844;2023-06-04T03:44:30;1.70;;;1.60;;
35496;SDS011;21609;49.298;6.844;2023-06-04T03:46:56;1.80;;;1.70;;
35496;SDS011;21609;49.298;6.844;2023-06-04T03:49:21;1.92;;;1.80;;
35496;SDS011;21609;49.298;6.844;2023-06-04T03:51:47;1.90;;;1.80;;
35496;SDS011;21609;49.298;6.844;2023-06-04T03:54:13;1.73;;;1.63;;
35496;SDS011;21609;49.298;6.844;2023-06-04T03:56:41;1.98;;;1.75;;
35496;SDS011;21609;49.298;6.844;2023-06-04T03:59:08;1.60;;;1.50;;
35496;SDS011;21609;49.298;6.844;2023-06-04T04:01:33;1.90;;;1.50;;
35496;SDS011;21609;49.298;6.844;2023-06-04T04:03:59;1.95;;;1.85;;
35496;SDS011;21609;49.298;6.844;2023-06-04T04:06:24;1.70;;;1.60;;
35496;SDS011;21609;49.298;6.844;2023-06-04T04:08:50;1.58;;;1.48;;
35496;SDS011;21609;49.298;6.844;2023-06-04T04:11:16;1.60;;;1.50;;
35496;SDS011;21609;49.298;6.844;2023-06-04T04:13:42;1.95;;;1.85;;
35496;SDS011;21609;49.298;6.844;2023-06-04T04:16:09;1.40;;;1.30;;
35496;SDS011;21609;49.298;6.844;2023-06-04T04:18:35;2.03;;;1.83;;
35496;SDS011;21609;49.298;6.844;2023-06-04T04:21:01;1.88;;;1.70;;
35496;SDS011;21609;49.298;6.844;2023-06-04T04:23:28;1.80;;;1.52;;
35496;SDS011;21609;49.298;6.844;2023-06-04T04:25:55;1.77;;;1.67;;
35496;SDS011;21609;49.298;6.844;2023-06-04T04:28:23;1.65;;;1.55;;
35496;SDS011;21609;49.298;6.844;2023-06-04T04:30:53;1.90;;;1.80;;
35496;SDS011;21609;49.298;6.844;2023-06-04T04:33:19;1.50;;;1.40;;
35496;SDS011;21609;49.298;6.844;2023-06-04T04:35:45;4.03;;;1.42;;
35496;SDS011;21609;49.298;6.844;2023-06-04T04:38:11;1.60;;;1.50;;
35496;SDS011;21609;49.298;6.844;2023-06-04T04:40:37;1.73;;;1.63;;
35496;SDS011;21609;49.298;6.844;2023-06-04T04:43:02;1.80;;;1.70;;
35496;SDS011;21609;49.298;6.844;2023-06-04T04:45:28;1.60;;;1.50;;
35496;SDS011;21609;49.298;6.844;2023-06-04T04:47:54;1.98;;;1.85;;
35496;SDS011;21609;49.298;6.844;2023-06-04T04:50:20;1.65;;;1.55;;
35496;SDS011;21609;49.298;6.844;2023-06-04T04:52:45;2.58;;;1.50;;
35496;SDS011;21609;49.298;6.844;2023-06-04T04:55:11;1.70;;;1.60;;
35496;SDS011;21609;49.298;6.844;2023-06-04T04:57:38;1.50;;;1.40;;
35496;SDS011;21609;49.298;6.844;2023-06-04T05:00:04;1.33;;;1.23;;
35496;SDS011;21609;49.298;6.844;2023-06-04T05:02:31;1.52;;;1.42;;
35496;SDS011;21609;49.298;6.844;2023-06-04T05:04:57;1.60;;;1.50;;
35496;SDS011;21609;49.298;6.844;2023-06-04T05:07:22;1.42;;;1.33;;
35496;SDS011;21609;49.298;6.844;2023-06-04T05:09:49;1.48;;;1.27;;
35496;SDS011;21609;49.298;6.844;2023-06-04T05:12:15;1.67;;;1.58;;
35496;SDS011;21609;49.298;6.844;2023-06-04T05:14:41;1.65;;;1.55;;
35496;SDS011;21609;49.298;6.844;2023-06-04T05:17:06;1.60;;;1.50;;
35496;SDS011;21609;49.298;6.844;2023-06-04T05:19:34;1.70;;;1.60;;
35496;SDS011;21609;49.298;6.844;2023-06-04T05:21:59;2.05;;;1.70;;
35496;SDS011;21609;49.298;6.844;2023-06-04T05:24:25;1.60;;;1.50;;
35496;SDS011;21609;49.298;6.844;2023-06-04T05:26:51;2.58;;;1.52;;
35496;SDS011;21609;49.298;6.844;2023-06-04T05:29:17;1.55;;;1.45;;
35496;SDS011;21609;49.298;6.844;2023-06-04T05:31:42;1.80;;;1.70;;
35496;SDS011;21609;49.298;6.844;2023-06-04T05:34:08;1.60;;;1.50;;
35496;SDS011;21609;49.298;6.844;2023-06-04T05:36:33;1.30;;;1.20;;
35496;SDS011;21609;49.298;6.844;2023-06-04T05:38:59;1.70;;;1.50;;
35496;SDS011;21609;49.298;6.844;2023-06-04T05:41:25;1.50;;;1.40;;
35496;SDS011;21609;49.298;6.844;2023-06-04T05:43:52;1.60;;;1.50;;
35496;SDS011;21609;49.298;6.844;2023-06-04T05:46:18;1.60;;;1.50;;
35496;SDS011;21609;49.298;6.844;2023-06-04T05:48:44;1.50;;;1.40;;
35496;SDS011;21609;49.298;6.844;2023-06-04T05:51:10;1.70;;;1.60;;
35496;SDS011;21609;49.298;6.844;2023-06-04T05:53:38;1.63;;;1.52;;
35496;SDS011;21609;49.298;6.844;2023-06-04T05:56:04;1.88;;;1.40;;
35496;SDS011;21609;49.298;6.844;2023-06-04T05:58:29;1.35;;;1.25;;
35496;SDS011;21609;49.298;6.844;2023-06-04T06:00:55;1.50;;;1.40;;
35496;SDS011;21609;49.298;6.844;2023-06-04T06:03:20;1.55;;;1.27;;
35496;SDS011;21609;49.298;6.844;2023-06-04T06:05:46;2.22;;;1.30;;
35496;SDS011;21609;49.298;6.844;2023-06-04T06:08:11;1.40;;;1.30;;
35496;SDS011;21609;49.298;6.844;2023-06-04T06:10:38;1.73;;;1.63;;
35496;SDS011;21609;49.298;6.844;2023-06-04T06:13:04;1.27;;;1.17;;
35496;SDS011;21609;49.298;6.844;2023-06-04T06:15:29;1.60;;;1.50;;
35496;SDS011;21609;49.298;6.844;2023-06-04T06:17:55;2.95;;;1.35;;
35496;SDS011;21609;49.298;6.844;2023-06-04T06:20:21;1.70;;;1.60;;
35496;SDS011;21609;49.298;6.844;2023-06-04T06:22:47;2.65;;;1.55;;
35496;SDS011;21609;49.298;6.844;2023-06-04T06:25:13;1.67;;;1.30;;
35496;SDS011;21609;49.298;6.844;2023-06-04T06:27:40;1.90;;;1.48;;
35496;SDS011;21609;49.298;6.844;2023-06-04T06:30:06;2.20;;;1.60;;
35496;SDS011;21609;49.298;6.844;2023-06-04T06:32:33;1.50;;;1.40;;
35496;SDS011;21609;49.298;6.844;2023-06-04T06:34:59;1.83;;;1.27;;
35496;SDS011;21609;49.298;6.844;2023-06-04T06:37:25;3.20;;;1.20;;
35496;SDS011;21609;49.298;6.844;2023-06-04T06:39:51;3.53;;;1.58;;
35496;SDS011;21609;49.298;6.844;2023-06-04T06:42:17;2.05;;;1.45;;
35496;SDS011;21609;49.298;6.844;2023-06-04T06:44:46;2.10;;;1.48;;
35496;SDS011;21609;49.298;6.844;2023-06-04T06:47:11;3.10;;;1.42;;
35496;SDS011;21609;49.298;6.844;2023-06-04T06:49:39;1.63;;;1.27;;
35496;SDS011;21609;49.298;6.844;2023-06-04T06:52:05;1.80;;;1.42;;
35496;SDS011;21609;49.298;6.844;2023-06-04T06:54:30;1.67;;;1.35;;
35496;SDS011;21609;49.298;6.844;2023-06-04T06:56:56;1.83;;;1.73;;
35496;SDS011;21609;49.298;6.844;2023-06-04T06:59:22;2.35;;;1.60;;
35496;SDS011;21609;49.298;6.844;2023-06-04T07:01:48;1.38;;;1.27;;
35496;SDS011;21609;49.298;6.844;2023-06-04T07:04:14;1.30;;;1.20;;
35496;SDS011;21609;49.298;6.844;2023-06-04T07:06:39;2.70;;;1.48;;
35496;SDS011;21609;49.298;6.844;2023-06-04T07:09:05;2.42;;;1.50;;
35496;SDS011;21609;49.298;6.844;2023-06-04T07:11:31;1.17;;;1.13;;
35496;SDS011;21609;49.298;6.844;2023-06-04T07:13:56;5.38;;;1.48;;
35496;SDS011;21609;49.298;6.844;2023-06-04T07:16:22;1.48;;;1.20;;
35496;SDS011;21609;49.298;6.844;2023-06-04T07:18:48;1.33;;;1.23;;
35496;SDS011;21609;49.298;6.844;2023-06-04T07:21:15;1.95;;;1.35;;
35496;SDS011;21609;49.298;6.844;2023-06-04T07:23:41;1.30;;;1.10;;
35496;SDS011;21609;49.298;6.844;2023-06-04T07:26:06;1.45;;;1.30;;
35496;SDS011;21609;49.298;6.844;2023-06-04T07:28:32;1.23;;;1.13;;
35496;SDS011;21609;49.298;6.844;2023-06-04T07:30:58;3.13;;;1.27;;
35496;SDS011;21609;49.298;6.844;2023-06-04T07:33:25;1.20;;;1.10;;
35496;SDS011;21609;49.298;6.844;2023-06-04T07:35:51;1.73;;;1.42;;
35496;SDS011;21609;49.298;6.844;2023-06-04T07:38:16;1.52;;;1.40;;
35496;SDS011;21609;49.298;6.844;2023-06-04T07:40:43;1.67;;;1.10;;
35496;SDS011;21609;49.298;6.844;2023-06-04T07:43:10;1.45;;;1.13;;
35496;SDS011;21609;49.298;6.844;2023-06-04T07:45:35;1.45;;;1.00;;
35496;SDS011;21609;49.298;6.844;2023-06-04T07:48:01;2.17;;;1.30;;
35496;SDS011;21609;49.298;6.844;2023-06-04T07:50:26;1.30;;;1.10;;
35496;SDS011;21609;49.298;6.844;2023-06-04T07:52:52;1.00;;;1.00;;
35496;SDS011;21609;49.298;6.844;2023-06-04T07:55:17;5.82;;;1.40;;
35496;SDS011;21609;49.298;6.844;2023-06-04T07:57:43;1.23;;;1.08;;
35496;SDS011;21609;49.298;6.844;2023-06-04T08:00:09;1.58;;;1.27;;
35496;SDS011;21609;49.298;6.844;2023-06-04T08:02:36;2.85;;;1.35;;
35496;SDS011;21609;49.298;6.844;2023-06-04T08:05:02;1.17;;;1.08;;
35496;SDS011;21609;49.298;6.844;2023-06-04T08:07:28;1.05;;;1.00;;
35496;SDS011;21609;49.298;6.844;2023-06-04T08:09:54;1.10;;;1.00;;
35496;SDS011;21609;49.298;6.844;2023-06-04T08:12:21;1.23;;;1.13;;
35496;SDS011;21609;49.298;6.844;2023-06-04T08:14:47;1.35;;;1.25;;
35496;SDS011;21609;49.298;6.844;2023-06-04T08:17:15;2.47;;;1.60;;
35496;SDS011;21609;49.298;6.844;2023-06-04T08:19:40;1.30;;;1.20;;
35496;SDS011;21609;49.298;6.844;2023-06-04T08:22:06;1.40;;;1.30;;
35496;SDS011;21609;49.298;6.844;2023-06-04T08:24:34;1.10;;;1.05;;
35496;SDS011;21609;49.298;6.844;2023-06-04T08:26:59;1.20;;;1.10;;
35496;SDS011;21609;49.298;6.844;2023-06-04T08:29:25;2.55;;;1.15;;
35496;SDS011;21609;49.298;6.844;2023-06-04T08:31:51;1.23;;;1.10;;
35496;SDS011;21609;49.298;6.844;2023-06-04T08:34:16;1.20;;;1.08;;
35496;SDS011;21609;49.298;6.844;2023-06-04T08:36:42;2.13;;;1.48;;
35496;SDS011;21609;49.298;6.844;2023-06-04T08:39:07;1.35;;;1.20;;
35496;SDS011;21609;49.298;6.844;2023-06-04T08:41:38;1.60;;;1.30;;
35496;SDS011;21609;49.298;6.844;2023-06-04T08:44:09;1.08;;;0.98;;
35496;SDS011;21609;49.298;6.844;2023-06-04T08:46:38;2.10;;;1.10;;
35496;SDS011;21609;49.298;6.844;2023-06-04T08:49:07;0.90;;;0.82;;
35496;SDS011;21609;49.298;6.844;2023-06-04T08:51:35;1.33;;;1.20;;
35496;SDS011;21609;49.298;6.844;2023-06-04T08:54:05;1.88;;;1.08;;
35496;SDS011;21609;49.298;6.844;2023-06-04T08:56:32;1.58;;;1.08;;
35496;SDS011;21609;49.298;6.844;2023-06-04T08:58:59;1.40;;;0.88;;
35496;SDS011;21609;49.298;6.844;2023-06-04T09:01:27;2.35;;;1.48;;
35496;SDS011;21609;49.298;6.844;2023-06-04T09:03:53;1.23;;;1.13;;
35496;SDS011;21609;49.298;6.844;2023-06-04T09:06:19;2.45;;;1.17;;
35496;SDS011;21609;49.298;6.844;2023-06-04T09:08:45;1.42;;;0.93;;
35496;SDS011;21609;49.298;6.844;2023-06-04T09:11:11;1.13;;;1.02;;
35496;SDS011;21609;49.298;6.844;2023-06-04T09:13:39;1.00;;;0.80;;
35496;SDS011;21609;49.298;6.844;2023-06-04T09:16:08;1.17;;;1.02;;
35496;SDS011;21609;49.298;6.844;2023-06-04T09:18:33;1.80;;;0.90;;
35496;SDS011;21609;49.298;6.844;2023-06-04T09:21:02;1.42;;;1.02;;
35496;SDS011;21609;49.298;6.844;2023-06-04T09:23:45;2.75;;;1.10;;
35496;SDS011;21609;49.298;6.844;2023-06-04T09:26:12;3.40;;;1.10;;
35496;SDS011;21609;49.298;6.844;2023-06-04T09:28:41;0.93;;;0.85;;
35496;SDS011;21609;49.298;6.844;2023-06-04T09:31:13;1.42;;;1.02;;
35496;SDS011;21609;49.298;6.844;2023-06-04T09:33:43;2.88;;;1.10;;
35496;SDS011;21609;49.298;6.844;2023-06-04T09:36:13;1.00;;;0.90;;
35496;SDS011;21609;49.298;6.844;2023-06-04T09:38:38;2.28;;;0.90;;
35496;SDS011;21609;49.298;6.844;2023-06-04T09:41:04;1.58;;;1.15;;
35496;SDS011;21609;49.298;6.844;2023-06-04T09:43:36;1.90;;;1.27;;
35496;SDS011;21609;49.298;6.844;2023-06-04T09:46:11;2.88;;;1.23;;
35496;SDS011;21609;49.298;6.844;2023-06-04T09:48:38;1.75;;;1.33;;
35496;SDS011;21609;49.298;6.844;2023-06-04T09:51:08;1.15;;;1.02;;
35496;SDS011;21609;49.298;6.844;2023-06-04T09:53:35;1.23;;;1.13;;
35496;SDS011;21609;49.298;6.844;2023-06-04T09:56:02;1.38;;;1.00;;
35496;SDS011;21609;49.298;6.844;2023-06-04T09:58:29;1.55;;;1.17;;
35496;SDS011;21609;49.298;6.844;2023-06-04T10:00:56;2.17;;;1.20;;
35496;SDS011;21609;49.298;6.844;2023-06-04T10:03:33;1.23;;;1.08;;
35496;SDS011;21609;49.298;6.844;2023-06-04T10:06:02;1.83;;;0.90;;
35496;SDS011;21609;49.298;6.844;2023-06-04T10:08:29;1.38;;;1.02;;
35496;SDS011;21609;49.298;6.844;2023-06-04T10:10:58;2.22;;;1.30;;
35496;SDS011;21609;49.298;6.844;2023-06-04T10:13:26;6.32;;;1.50;;
35496;SDS011;21609;49.298;6.844;2023-06-04T10:15:59;2.20;;;0.88;;
35496;SDS011;21609;49.298;6.844;2023-06-04T10:18:27;3.10;;;1.20;;
35496;SDS011;21609;49.298;6.844;2023-06-04T10:20:56;1.15;;;1.05;;
35496;SDS011;21609;49.298;6.844;2023-06-04T10:23:23;1.35;;;1.02;;
35496;SDS011;21609;49.298;6.844;2023-06-04T10:25:49;2.38;;;1.10;;
35496;SDS011;21609;49.298;6.844;2023-06-04T10:28:20;1.95;;;1.02;;
35496;SDS011;21609;49.298;6.844;2023-06-04T10:30:47;1.27;;;1.13;;
35496;SDS011;21609;49.298;6.844;2023-06-04T10:33:15;1.67;;;0.90;;
35496;SDS011;21609;49.298;6.844;2023-06-04T10:35:45;1.23;;;0.93;;
35496;SDS011;21609;49.298;6.844;2023-06-04T10:38:11;4.10;;;1.30;;
35496;SDS011;21609;49.298;6.844;2023-06-04T10:40:39;1.92;;;1.00;;
35496;SDS011;21609;49.298;6.844;2023-06-04T10:43:08;2.15;;;1.25;;
35496;SDS011;21609;49.298;6.844;2023-06-04T10:45:39;1.40;;;1.05;;
35496;SDS011;21609;49.298;6.844;2023-06-04T10:48:06;1.75;;;0.90;;
35496;SDS011;21609;49.298;6.844;2023-06-04T10:50:32;1.30;;;1.20;;
35496;SDS011;21609;49.298;6.844;2023-06-04T10:53:00;2.97;;;1.27;;
35496;SDS011;21609;49.298;6.844;2023-06-04T10:55:30;1.33;;;1.10;;
35496;SDS011;21609;49.298;6.844;2023-06-04T10:57:57;1.20;;;1.10;;
35496;SDS011;21609;49.298;6.844;2023-06-04T11:00:36;1.02;;;1.00;;
35496;SDS011;21609;49.298;6.844;2023-06-04T11:03:10;1.38;;;1.00;;
35496;SDS011;21609;49.298;6.844;2023-06-04T11:05:38;1.45;;;0.88;;
35496;SDS011;21609;49.298;6.844;2023-06-04T11:08:07;1.85;;;1.30;;
35496;SDS011;21609;49.298;6.844;2023-06-04T11:10:35;1.23;;;1.00;;
35496;SDS011;21609;49.298;6.844;2023-06-04T11:13:08;1.45;;;1.02;;
35496;SDS011;21609;49.298;6.844;2023-06-04T11:15:41;2.28;;;1.10;;
35496;SDS011;21609;49.298;6.844;2023-06-04T11:18:08;1.08;;;0.95;;
35496;SDS011;21609;49.298;6.844;2023-06-04T11:23:03;3.15;;;1.33;;
35496;SDS011;21609;49.298;6.844;2023-06-04T11:25:30;1.60;;;1.02;;
35496;SDS011;21609;49.298;6.844;2023-06-04T11:27:58;4.32;;;1.33;;
35496;SDS011;21609;49.298;6.844;2023-06-04T11:30:24;1.20;;;1.10;;
35496;SDS011;21609;49.298;6.844;2023-06-04T11:32:50;3.60;;;1.50;;
35496;SDS011;21609;49.298;6.844;2023-06-04T11:35:25;1.35;;;1.25;;
35496;SDS011;21609;49.298;6.844;2023-06-04T11:37:54;2.63;;;1.33;;
35496;SDS011;21609;49.298;6.844;2023-06-04T11:40:21;1.17;;;1.08;;
35496;SDS011;21609;49.298;6.844;2023-06-04T11:42:47;3.63;;;1.30;;
35496;SDS011;21609;49.298;6.844;2023-06-04T11:45:13;2.17;;;1.15;;
35496;SDS011;21609;49.298;6.844;2023-06-04T11:47:47;1.27;;;1.17;;
35496;SDS011;21609;49.298;6.844;2023-06-04T11:50:14;1.38;;;1.27;;
35496;SDS011;21609;49.298;6.844;2023-06-04T11:52:40;1.30;;;1.00;;
35496;SDS011;21609;49.298;6.844;2023-06-04T11:55:09;1.45;;;1.20;;
35496;SDS011;21609;49.298;6.844;2023-06-04T11:57:37;1.75;;;1.05;;
35496;SDS011;21609;49.298;6.844;2023-06-04T12:00:04;2.08;;;1.27;;
35496;SDS011;21609;49.298;6.844;2023-06-04T12:02:35;1.58;;;0.95;;
35496;SDS011;21609;49.298;6.844;2023-06-04T12:05:11;2.20;;;1.20;;
35496;SDS011;21609;49.298;6.844;2023-06-04T12:07:37;1.98;;;1.50;;
35496;SDS011;21609;49.298;6.844;2023-06-04T12:10:06;1.17;;;1.10;;
35496;SDS011;21609;49.298;6.844;2023-06-04T12:12:36;1.02;;;0.98;;
35496;SDS011;21609;49.298;6.844;2023-06-04T12:15:02;1.27;;;1.15;;
35496;SDS011;21609;49.298;6.844;2023-06-04T12:17:30;1.40;;;1.30;;
35496;SDS011;21609;49.298;6.844;2023-06-04T12:19:56;2.20;;;1.00;;
35496;SDS011;21609;49.298;6.844;2023-06-04T12:22:23;1.95;;;0.90;;
35496;SDS011;21609;49.298;6.844;2023-06-04T12:24:50;1.65;;;1.48;;
35496;SDS011;21609;49.298;6.844;2023-06-04T12:27:24;1.45;;;1.30;;
35496;SDS011;21609;49.298;6.844;2023-06-04T12:30:00;0.97;;;0.97;;
35496;SDS011;21609;49.298;6.844;2023-06-04T12:32:27;2.65;;;1.27;;
35496;SDS011;21609;49.298;6.844;2023-06-04T12:34:53;1.35;;;1.25;;
35496;SDS011;21609;49.298;6.844;2023-06-04T12:37:20;1.45;;;1.30;;
35496;SDS011;21609;49.298;6.844;2023-06-04T12:39:47;2.55;;;1.48;;
35496;SDS011;21609;49.298;6.844;2023-06-04T12:42:12;3.28;;;1.38;;
35496;SDS011;21609;49.298;6.844;2023-06-04T12:44:38;1.67;;;1.25;;
35496;SDS011;21609;49.298;6.844;2023-06-04T12:47:04;1.25;;;1.15;;
35496;SDS011;21609;49.298;6.844;2023-06-04T12:49:31;1.20;;;1.10;;
35496;SDS011;21609;49.298;6.844;2023-06-04T12:51:56;1.27;;;1.17;;
35496;SDS011;21609;49.298;6.844;2023-06-04T12:54:22;1.50;;;1.40;;
35496;SDS011;21609;49.298;6.844;2023-06-04T12:56:48;2.47;;;1.33;;
35496;SDS011;21609;49.298;6.844;2023-06-04T12:59:14;1.38;;;1.15;;
35496;SDS011;21609;49.298;6.844;2023-06-04T13:01:39;1.83;;;1.45;;
35496;SDS011;21609;49.298;6.844;2023-06-04T13:04:05;1.13;;;1.02;;
35496;SDS011;21609;49.298;6.844;2023-06-04T13:06:33;1.60;;;1.20;;
35496;SDS011;21609;49.298;6.844;2023-06-04T13:08:59;1.50;;;1.30;;
35496;SDS011;21609;49.298;6.844;2023-06-04T13:11:25;1.35;;;1.20;;
35496;SDS011;21609;49.298;6.844;2023-06-04T13:13:51;2.25;;;1.35;;
35496;SDS011;21609;49.298;6.844;2023-06-04T13:16:16;1.73;;;1.33;;
35496;SDS011;21609;49.298;6.844;2023-06-04T13:18:42;3.13;;;1.02;;
35496;SDS011;21609;49.298;6.844;2023-06-04T13:21:07;2.92;;;1.40;;
35496;SDS011;21609;49.298;6.844;2023-06-04T13:23:33;2.65;;;1.33;;
35496;SDS011;21609;49.298;6.844;2023-06-04T13:25:58;1.85;;;1.33;;
35496;SDS011;21609;49.298;6.844;2023-06-04T13:28:25;1.30;;;1.20;;
35496;SDS011;21609;49.298;6.844;2023-06-04T13:30:51;4.38;;;1.63;;
35496;SDS011;21609;49.298;6.844;2023-06-04T13:33:16;1.42;;;1.33;;
35496;SDS011;21609;49.298;6.844;2023-06-04T13:35:44;2.47;;;1.30;;
35496;SDS011;21609;49.298;6.844;2023-06-04T13:38:09;1.25;;;1.15;;
35496;SDS011;21609;49.298;6.844;2023-06-04T13:40:37;3.05;;;1.80;;
35496;SDS011;21609;49.298;6.844;2023-06-04T13:43:04;1.77;;;1.35;;
35496;SDS011;21609;49.298;6.844;2023-06-04T13:45:30;1.50;;;1.40;;
35496;SDS011;21609;49.298;6.844;2023-06-04T13:47:56;2.08;;;1.27;;
35496;SDS011;21609;49.298;6.844;2023-06-04T13:50:24;2.22;;;1.48;;
35496;SDS011;21609;49.298;6.844;2023-06-04T13:52:50;1.85;;;1.30;;
35496;SDS011;21609;49.298;6.844;2023-06-04T13:55:16;2.33;;;1.55;;
35496;SDS011;21609;49.298;6.844;2023-06-04T13:57:41;1.20;;;1.10;;
35496;SDS011;21609;49.298;6.844;2023-06-04T14:00:07;2.38;;;1.70;;
35496;SDS011;21609;49.298;6.844;2023-06-04T14:02:34;2.05;;;1.67;;
35496;SDS011;21609;49.298;6.844;2023-06-04T14:05:00;2.03;;;1.88;;
35496;SDS011;21609;49.298;6.844;2023-06-04T14:07:25;1.73;;;1.63;;
35496;SDS011;21609;49.298;6.844;2023-06-04T14:09:51;2.08;;;1.23;;
35496;SDS011;21609;49.298;6.844;2023-06-04T14:12:20;2.42;;;1.40;;
35496;SDS011;21609;49.298;6.844;2023-06-04T14:14:49;4.18;;;1.70;;
35496;SDS011;21609;49.298;6.844;2023-06-04T14:17:15;2.28;;;1.80;;
35496;SDS011;21609;49.298;6.844;2023-06-04T14:19:41;4.53;;;1.50;;
35496;SDS011;21609;49.298;6.844;2023-06-04T14:22:07;1.80;;;1.70;;
35496;SDS011;21609;49.298;6.844;2023-06-04T14:24:32;1.70;;;1.35;;
35496;SDS011;21609;49.298;6.844;2023-06-04T14:26:58;1.77;;;1.20;;
35496;SDS011;21609;49.298;6.844;2023-06-04T14:29:24;1.60;;;1.48;;
35496;SDS011;21609;49.298;6.844;2023-06-04T14:31:49;1.55;;;1.45;;
35496;SDS011;21609;49.298;6.844;2023-06-04T14:34:15;1.95;;;1.60;;
35496;SDS011;21609;49.298;6.844;2023-06-04T14:36:41;1.77;;;1.65;;
35496;SDS011;21609;49.298;6.844;2023-06-04T14:39:06;1.80;;;1.70;;
35496;SDS011;21609;49.298;6.844;2023-06-04T14:41:32;1.80;;;1.70;;
35496;SDS011;21609;49.298;6.844;2023-06-04T14:43:58;1.58;;;1.48;;
35496;SDS011;21609;49.298;6.844;2023-06-04T14:46:23;1.40;;;1.30;;
35496;SDS011;21609;49.298;6.844;2023-06-04T14:48:50;1.55;;;1.40;;
35496;SDS011;21609;49.298;6.844;2023-06-04T14:51:15;2.75;;;1.88;;
35496;SDS011;21609;49.298;6.844;2023-06-04T14:53:41;1.75;;;1.65;;
35496;SDS011;21609;49.298;6.844;2023-06-04T14:56:07;1.85;;;1.75;;